Darnestown, Maryland
Current Conditions -  °F | °C
As of 12:55 PM on Friday 24 Oct 2014 (Local Time) from KGAI Reporting Station
Clear Clear  
Wind Chill: 61°   Ceiling: Unl
Heat Index: 61°   Visibility: 10mi
Dew Point: 43°   Wind: 13mph
Humidity: 52%   Direction: 300°WNW
Pressure: 29.98"   Gusts: 22mph
Location:  39.1148°N, 77.252°W
Report Text: KGAI 241655Z 30011G19KT 10SM CLR 16/06 A2998 RMK AO1
Loading
Personal Weather Stations






























Interactive Weather Map
Tropical Storm Tracking
New forecast layout! Learn more

10-Day Weather Forecast

Advertisements
Track Severe Weather on mobile